Time;durP1;ratioP1;P1;durP2;ratioP2;P2;SDS_P1;SDS_P2;PMS_P1;PMS_P2;Temp;Humidity;BMP_temperature;BMP_pressure;BME280_temperature;BME280_humidity;BME280_pressure;Samples;Min_cycle;Max_cycle;Signal;HPM_P1;HPM_P2
2023/09/19 00:00:20;;;;;;;5.20;3.97;;;24.00;99.60;;;;;;5083975;28;20455;-82
2023/09/19 00:03:06;;;;;;;4.90;4.40;;;24.00;99.60;;;;;;5085690;28;20500;-82
2023/09/19 00:05:34;;;;;;;5.70;5.20;;;24.00;99.60;;;;;;5085261;28;21101;-81
2023/09/19 00:08:03;;;;;;;4.90;3.70;;;24.00;99.60;;;;;;5085320;28;20417;-81
2023/09/19 00:10:30;;;;;;;4.13;3.73;;;24.00;99.50;;;;;;5085044;28;20424;-82
2023/09/19 00:12:58;;;;;;;5.30;4.43;;;24.00;99.60;;;;;;5085242;28;20492;-81
2023/09/19 00:15:28;;;;;;;5.13;4.33;;;24.00;99.60;;;;;;5085572;28;20468;-81
2023/09/19 00:17:54;;;;;;;4.43;4.00;;;24.00;99.50;;;;;;5085470;28;21145;-83
2023/09/19 00:20:22;;;;;;;4.33;3.93;;;24.00;99.60;;;;;;5084695;28;20640;-81
2023/09/19 00:22:50;;;;;;;6.63;4.70;;;24.00;99.60;;;;;;5088003;28;20478;-82
2023/09/19 00:25:16;;;;;;;5.67;4.73;;;24.10;99.60;;;;;;5089312;28;20485;-81
2023/09/19 00:27:42;;;;;;;5.57;4.20;;;24.10;99.60;;;;;;5088992;28;20896;-80
2023/09/19 00:30:21;;;;;;;5.30;3.97;;;24.00;99.60;;;;;;5089052;28;20615;-82
2023/09/19 00:32:54;;;;;;;6.23;4.53;;;24.00;99.50;;;;;;5087575;28;20531;-81
2023/09/19 00:35:27;;;;;;;4.10;3.30;;;24.10;99.60;;;;;;5087819;28;20459;-80
2023/09/19 00:37:53;;;;;;;7.80;5.00;;;24.00;99.60;;;;;;5087493;28;20836;-82
2023/09/19 00:40:19;;;;;;;4.43;4.03;;;24.00;99.60;;;;;;5087199;28;20509;-82
2023/09/19 00:42:46;;;;;;;4.43;4.00;;;24.00;99.60;;;;;;5087227;28;20634;-81
2023/09/19 00:45:14;;;;;;;4.63;4.23;;;23.90;99.60;;;;;;5086888;28;20455;-83
2023/09/19 00:47:42;;;;;;;4.97;4.47;;;23.90;99.70;;;;;;5087515;28;20811;-82
2023/09/19 00:50:09;;;;;;;4.90;3.83;;;23.80;99.70;;;;;;5086892;28;20533;-81
2023/09/19 00:52:38;;;;;;;4.90;4.40;;;23.80;99.80;;;;;;5087565;28;20423;-81
2023/09/19 00:55:14;;;;;;;4.00;3.60;;;23.80;99.80;;;;;;5086865;28;20475;-81
2023/09/19 00:57:39;;;;;;;5.67;4.80;;;23.80;99.80;;;;;;5087408;28;20423;-82
2023/09/19 01:00:08;;;;;;;3.40;3.10;;;23.80;99.70;;;;;;5088039;28;20442;-82
2023/09/19 01:02:37;;;;;;;6.33;3.87;;;23.80;99.80;;;;;;5087175;28;20668;-81
2023/09/19 01:05:04;;;;;;;5.20;3.53;;;23.80;99.80;;;;;;5086902;28;20443;-81
2023/09/19 01:07:31;;;;;;;4.30;3.90;;;23.80;99.80;;;;;;5088341;28;20411;-81
2023/09/19 01:10:00;;;;;;;3.67;3.27;;;23.70;99.80;;;;;;5086654;28;20458;-81
2023/09/19 01:13:21;;;;;;;4.97;4.10;;;23.80;99.80;;;;;;5088759;28;20913;-81
2023/09/19 01:16:29;;;;;;;5.43;4.20;;;23.80;99.70;;;;;;5044863;28;21072;-83
2023/09/19 01:19:26;;;;;;;4.70;3.90;;;23.80;99.70;;;;;;5028169;28;20613;-81
2023/09/19 01:22:08;;;;;;;6.50;3.50;;;23.70;99.70;;;;;;5087807;28;20414;-81
2023/09/19 01:25:18;;;;;;;6.17;3.60;;;23.70;99.80;;;;;;5085775;28;20567;-80
2023/09/19 01:28:20;;;;;;;3.33;3.03;;;23.70;99.90;;;;;;5071461;28;20427;-81
2023/09/19 01:30:46;;;;;;;4.30;3.90;;;23.70;99.80;;;;;;5086325;28;20466;-81
2023/09/19 01:33:14;;;;;;;4.77;4.00;;;23.70;99.80;;;;;;5086644;28;20411;-82
2023/09/19 01:35:40;;;;;;;3.87;3.43;;;23.70;99.70;;;;;;5087708;28;20522;-80
2023/09/19 01:38:11;;;;;;;4.07;3.20;;;23.80;99.70;;;;;;5087923;28;20491;-83
2023/09/19 01:40:42;;;;;;;6.10;3.53;;;23.80;99.70;;;;;;5086295;28;20213;-82
2023/09/19 01:43:32;;;;;;;4.23;3.40;;;23.80;99.70;;;;;;5085751;28;20984;-80
2023/09/19 01:46:21;;;;;;;3.93;3.60;;;23.80;99.90;;;;;;5087403;28;20474;-81
2023/09/19 01:49:20;;;;;;;4.37;3.90;;;23.70;99.70;;;;;;5086534;28;20995;-80
2023/09/19 01:52:19;;;;;;;5.60;3.60;;;23.70;99.70;;;;;;5085895;28;20467;-82
2023/09/19 01:55:00;;;;;;;6.23;3.50;;;23.70;99.70;;;;;;5085544;28;20473;-81
2023/09/19 01:57:29;;;;;;;3.47;3.00;;;23.60;99.70;;;;;;5086140;28;20938;-80
2023/09/19 02:00:17;;;;;;;3.37;3.10;;;23.60;99.80;;;;;;5085714;28;20463;-80
2023/09/19 02:02:46;;;;;;;5.17;3.60;;;23.60;99.90;;;;;;5085793;28;20427;-81
2023/09/19 02:05:12;;;;;;;4.50;3.70;;;23.60;99.90;;;;;;5085385;28;20876;-82
2023/09/19 02:07:40;;;;;;;3.20;2.90;;;23.50;99.90;;;;;;5087178;28;20461;-80
2023/09/19 02:10:07;;;;;;;3.40;3.10;;;23.50;99.90;;;;;;5085457;28;20924;-80
2023/09/19 02:12:34;;;;;;;3.70;3.33;;;23.60;99.90;;;;;;5085788;28;21100;-81
2023/09/19 02:15:00;;;;;;;3.10;2.80;;;23.60;99.90;;;;;;5085316;28;20455;-81
2023/09/19 02:17:26;;;;;;;3.83;3.40;;;23.60;99.90;;;;;;5085711;28;20414;-81
2023/09/19 02:19:55;;;;;;;3.17;2.87;;;23.50;99.90;;;;;;5085535;28;20548;-81
2023/09/19 02:22:22;;;;;;;3.63;3.20;;;23.50;99.90;;;;;;5085150;28;20307;-81
2023/09/19 02:24:48;;;;;;;4.50;3.77;;;23.50;99.90;;;;;;5084285;28;20478;-81
2023/09/19 02:27:15;;;;;;;3.30;2.73;;;23.50;99.90;;;;;;5086541;28;20622;-81
2023/09/19 02:29:42;;;;;;;4.10;3.70;;;23.60;99.90;;;;;;5086709;28;20194;-81
2023/09/19 02:32:09;;;;;;;4.40;3.70;;;23.50;99.90;;;;;;5086456;28;20404;-81
2023/09/19 02:34:36;;;;;;;6.00;3.50;;;23.50;99.90;;;;;;5085303;28;20522;-82
2023/09/19 02:37:05;;;;;;;5.20;3.83;;;23.50;99.90;;;;;;5086355;28;20407;-82
2023/09/19 02:39:35;;;;;;;4.00;3.60;;;23.50;99.90;;;;;;5085357;28;20546;-81
2023/09/19 02:42:01;;;;;;;4.13;3.70;;;23.60;99.90;;;;;;5086125;28;20625;-83
2023/09/19 02:44:27;;;;;;;4.10;3.13;;;23.50;99.90;;;;;;5084716;28;20483;-83
2023/09/19 02:46:53;;;;;;;7.10;4.90;;;23.50;99.90;;;;;;5086378;28;20420;-81
2023/09/19 02:49:18;;;;;;;3.43;3.13;;;23.50;99.90;;;;;;5086440;28;20429;-81
2023/09/19 02:51:45;;;;;;;3.67;3.37;;;23.50;99.90;;;;;;5086293;28;20179;-82
2023/09/19 02:54:11;;;;;;;6.27;3.37;;;23.50;99.90;;;;;;5084325;28;20266;-81
2023/09/19 02:56:37;;;;;;;3.50;3.20;;;23.50;99.90;;;;;;5085094;28;20408;-81
2023/09/19 02:59:03;;;;;;;3.50;3.20;;;23.50;99.90;;;;;;5086120;28;20442;-81
2023/09/19 03:01:29;;;;;;;3.70;3.33;;;23.50;99.90;;;;;;5086417;28;20510;-81
2023/09/19 03:03:55;;;;;;;5.63;3.40;;;23.50;99.90;;;;;;5084664;28;20591;-82
2023/09/19 03:06:21;;;;;;;3.93;3.53;;;23.60;99.90;;;;;;5085703;28;20244;-82
2023/09/19 03:08:49;;;;;;;4.70;3.87;;;23.60;99.90;;;;;;5086601;28;20175;-83
2023/09/19 03:11:16;;;;;;;4.33;3.60;;;23.60;99.90;;;;;;5085809;28;20796;-83
2023/09/19 03:13:42;;;;;;;4.20;3.80;;;23.60;99.90;;;;;;5084549;28;20505;-81
2023/09/19 03:16:08;;;;;;;5.63;4.13;;;23.60;99.90;;;;;;5085641;28;20441;-83
2023/09/19 03:18:34;;;;;;;4.20;3.00;;;23.60;99.90;;;;;;5086318;28;20415;-82
2023/09/19 03:21:00;;;;;;;4.13;3.73;;;23.60;99.90;;;;;;5084455;28;20442;-82
2023/09/19 03:23:27;;;;;;;5.27;4.13;;;23.60;99.90;;;;;;5085301;28;20462;-82
2023/09/19 03:25:54;;;;;;;5.60;3.70;;;23.50;99.90;;;;;;5083355;28;20573;-82
2023/09/19 03:28:21;;;;;;;4.40;3.13;;;23.60;99.90;;;;;;5085572;28;20433;-80
2023/09/19 03:31:04;;;;;;;3.80;3.40;;;23.60;99.90;;;;;;5084356;28;20472;-81
2023/09/19 03:33:33;;;;;;;4.23;3.60;;;23.50;99.90;;;;;;5085891;28;20985;-83
2023/09/19 03:36:00;;;;;;;5.20;3.33;;;23.50;99.90;;;;;;5084189;28;20441;-82
2023/09/19 03:38:27;;;;;;;5.67;3.50;;;23.50;99.90;;;;;;5085523;28;20504;-81
2023/09/19 03:40:52;;;;;;;6.13;3.97;;;23.50;99.90;;;;;;5084453;28;20434;-82
2023/09/19 03:43:19;;;;;;;4.53;3.80;;;23.50;99.90;;;;;;5085480;28;21576;-81
2023/09/19 03:45:46;;;;;;;6.93;3.50;;;23.50;99.90;;;;;;5084379;28;20235;-83
2023/09/19 03:48:12;;;;;;;4.40;4.00;;;23.50;99.90;;;;;;5084143;28;20776;-82
2023/09/19 03:50:39;;;;;;;5.40;3.20;;;23.40;99.90;;;;;;5083532;28;20524;-81
2023/09/19 03:53:06;;;;;;;4.10;3.67;;;23.40;99.90;;;;;;5085027;28;21072;-80
2023/09/19 03:55:32;;;;;;;6.37;4.43;;;23.50;99.90;;;;;;5084852;28;20460;-81
2023/09/19 03:57:57;;;;;;;4.30;3.90;;;23.50;99.90;;;;;;5089815;28;20402;-81
2023/09/19 04:00:26;;;;;;;4.43;3.93;;;23.50;99.90;;;;;;5087909;28;20202;-83
2023/09/19 04:02:52;;;;;;;4.80;3.90;;;23.50;99.90;;;;;;5087973;28;20209;-82
2023/09/19 04:05:18;;;;;;;4.17;3.70;;;23.40;99.90;;;;;;5089590;28;20446;-81
2023/09/19 04:07:44;;;;;;;4.30;3.90;;;23.40;99.90;;;;;;5089397;28;20397;-81
2023/09/19 04:10:13;;;;;;;4.47;3.87;;;23.40;99.90;;;;;;5087726;28;21015;-80
2023/09/19 04:12:39;;;;;;;8.63;6.37;;;23.30;99.90;;;;;;5087906;28;20468;-80
2023/09/19 04:15:06;;;;;;;4.50;4.00;;;23.30;99.90;;;;;;5087341;28;20872;-80
2023/09/19 04:17:34;;;;;;;4.73;4.23;;;23.30;99.90;;;;;;5087776;28;20447;-80
2023/09/19 04:20:00;;;;;;;5.30;4.00;;;23.20;99.90;;;;;;5088088;28;20429;-82
2023/09/19 04:22:26;;;;;;;4.97;4.03;;;23.20;99.90;;;;;;5086203;28;20425;-81
2023/09/19 04:24:51;;;;;;;5.10;4.60;;;23.20;99.90;;;;;;5081295;28;20677;-80
2023/09/19 04:27:18;;;;;;;5.90;4.90;;;23.20;99.90;;;;;;5083299;28;20183;-80
2023/09/19 04:29:44;;;;;;;4.43;4.03;;;23.20;99.90;;;;;;5085422;28;20354;-82
2023/09/19 04:32:10;;;;;;;5.50;4.13;;;23.10;99.90;;;;;;5086945;28;20421;-82
2023/09/19 04:34:38;;;;;;;5.80;4.10;;;23.20;99.90;;;;;;5085859;28;21012;-82
2023/09/19 04:37:04;;;;;;;5.60;4.80;;;23.10;99.90;;;;;;5085755;28;20187;-80
2023/09/19 04:39:29;;;;;;;6.87;4.60;;;23.10;99.90;;;;;;5079909;28;20447;-81
2023/09/19 04:41:56;;;;;;;5.90;4.70;;;23.10;99.90;;;;;;5075870;28;20810;-80
2023/09/19 04:44:22;;;;;;;5.03;4.40;;;23.10;99.90;;;;;;5073740;28;20706;-83
2023/09/19 04:46:48;;;;;;;6.17;3.90;;;23.00;99.90;;;;;;5080704;28;20509;-82
2023/09/19 04:49:16;;;;;;;4.60;3.57;;;23.00;99.90;;;;;;5081228;28;20565;-82
2023/09/19 04:51:42;;;;;;;4.60;4.20;;;22.90;99.90;;;;;;5077508;28;20212;-82
2023/09/19 04:54:08;;;;;;;7.70;3.87;;;22.90;99.90;;;;;;5085489;28;20657;-82
2023/09/19 04:56:34;;;;;;;6.00;4.37;;;22.90;99.90;;;;;;5084564;28;20184;-81
2023/09/19 04:59:00;;;;;;;7.50;4.10;;;22.80;99.90;;;;;;5085315;28;20434;-81
2023/09/19 05:01:26;;;;;;;17.77;12.00;;;22.80;99.90;;;;;;5082957;28;20396;-83
2023/09/19 05:03:52;;;;;;;8.27;4.67;;;22.80;99.90;;;;;;5085871;28;20208;-82
2023/09/19 05:06:22;;;;;;;5.40;4.10;;;22.70;99.90;;;;;;5086579;28;20544;-80
2023/09/19 05:08:52;;;;;;;8.83;4.37;;;22.70;99.90;;;;;;5083004;28;20972;-80
2023/09/19 05:11:19;;;;;;;8.23;3.90;;;22.60;99.90;;;;;;5083861;28;20955;-83
2023/09/19 05:13:44;;;;;;;11.90;4.60;;;22.60;99.90;;;;;;5085850;28;20503;-81
2023/09/19 05:16:10;;;;;;;6.57;4.77;;;22.60;99.90;;;;;;5086524;28;20449;-82
2023/09/19 05:18:36;;;;;;;5.50;4.13;;;22.60;99.90;;;;;;5086089;28;20696;-83
2023/09/19 05:21:05;;;;;;;7.47;4.50;;;22.60;99.90;;;;;;5086515;28;20197;-82
2023/09/19 05:23:31;;;;;;;10.17;4.60;;;22.50;99.90;;;;;;5086147;28;20571;-80
2023/09/19 05:25:59;;;;;;;7.07;4.40;;;22.50;99.90;;;;;;5086793;28;20443;-80
2023/09/19 05:28:25;;;;;;;6.97;4.30;;;22.60;99.90;;;;;;5083375;28;20192;-81
2023/09/19 05:30:52;;;;;;;7.17;4.80;;;22.50;99.90;;;;;;5082759;28;20454;-81
2023/09/19 05:33:18;;;;;;;6.50;5.20;;;22.50;99.90;;;;;;5087106;28;20746;-83
2023/09/19 05:35:46;;;;;;;5.73;5.20;;;22.60;99.90;;;;;;5083623;28;20501;-81
2023/09/19 05:38:13;;;;;;;6.43;5.40;;;22.50;99.90;;;;;;5084422;28;20560;-80
2023/09/19 05:40:42;;;;;;;7.93;6.00;;;22.50;99.90;;;;;;5084899;28;20438;-81
2023/09/19 05:43:08;;;;;;;7.83;5.60;;;22.50;99.90;;;;;;5084005;28;20488;-81
2023/09/19 05:45:35;;;;;;;6.27;5.63;;;22.50;99.90;;;;;;5082526;28;20469;-83
2023/09/19 05:48:27;;;;;;;6.20;5.10;;;22.50;99.90;;;;;;5101589;28;20452;-82
2023/09/19 05:50:53;;;;;;;4.80;4.00;;;22.40;99.90;;;;;;5083277;28;20489;-82
2023/09/19 05:53:20;;;;;;;6.73;5.30;;;22.40;99.90;;;;;;5085165;28;20985;-80
2023/09/19 05:55:45;;;;;;;6.53;5.80;;;22.40;99.90;;;;;;5083459;28;20670;-82
2023/09/19 05:58:13;;;;;;;8.37;6.20;;;22.40;99.90;;;;;;5082012;28;20421;-80
2023/09/19 06:00:41;;;;;;;7.47;5.87;;;22.40;99.90;;;;;;5086221;28;20205;-80
2023/09/19 06:03:07;;;;;;;5.90;4.50;;;22.40;99.90;;;;;;5085518;28;20547;-82
2023/09/19 06:05:33;;;;;;;6.70;4.77;;;22.30;99.90;;;;;;5084471;28;20533;-80
2023/09/19 06:08:07;;;;;;;6.47;5.40;;;22.40;99.90;;;;;;5082690;28;20423;-82
2023/09/19 06:10:34;;;;;;;7.37;5.60;;;22.40;99.90;;;;;;5085398;28;20205;-82
2023/09/19 06:13:04;;;;;;;8.73;7.93;;;22.40;99.90;;;;;;5081825;28;20453;-81
2023/09/19 06:15:32;;;;;;;5.70;5.20;;;22.40;99.90;;;;;;5081173;28;20468;-83
2023/09/19 06:17:59;;;;;;;6.73;6.13;;;22.50;99.90;;;;;;5078839;28;20451;-81
2023/09/19 06:20:26;;;;;;;6.00;5.50;;;22.50;99.90;;;;;;5072351;28;20464;-80
2023/09/19 06:22:52;;;;;;;6.37;5.77;;;22.50;99.90;;;;;;5074213;28;20520;-81
2023/09/19 06:25:20;;;;;;;6.20;5.40;;;22.60;99.90;;;;;;5077696;28;21000;-82
2023/09/19 06:27:46;;;;;;;5.43;4.90;;;22.60;99.90;;;;;;5078734;28;20422;-83
2023/09/19 06:30:13;;;;;;;6.47;5.67;;;22.70;99.90;;;;;;5079206;28;20449;-81
2023/09/19 06:32:39;;;;;;;6.10;5.37;;;22.80;99.90;;;;;;5078916;28;20457;-80
2023/09/19 06:35:10;;;;;;;5.80;5.10;;;22.90;99.90;;;;;;5076762;28;20534;-81
2023/09/19 06:37:38;;;;;;;6.90;6.20;;;23.00;99.90;;;;;;5076920;28;20481;-83
2023/09/19 06:40:14;;;;;;;6.50;5.50;;;23.10;99.90;;;;;;5079033;28;20912;-83
2023/09/19 06:42:45;;;;;;;6.40;5.80;;;23.10;99.90;;;;;;5076381;28;20427;-83
2023/09/19 06:45:13;;;;;;;6.00;5.07;;;23.20;99.90;;;;;;5079656;28;20457;-80
2023/09/19 06:47:39;;;;;;;5.77;5.13;;;23.20;99.90;;;;;;5080080;28;20435;-80
2023/09/19 06:50:08;;;;;;;5.57;5.10;;;23.30;99.90;;;;;;5074335;28;20487;-80
2023/09/19 06:52:35;;;;;;;6.40;5.80;;;23.30;99.90;;;;;;5069983;28;20764;-81
2023/09/19 06:55:03;;;;;;;6.20;4.87;;;23.40;99.90;;;;;;5072532;28;20466;-80
2023/09/19 06:57:30;;;;;;;10.23;5.60;;;23.40;99.90;;;;;;5078809;28;20515;-80
2023/09/19 06:59:56;;;;;;;8.47;5.30;;;23.50;99.90;;;;;;5080307;28;21034;-82
2023/09/19 07:02:21;;;;;;;6.20;5.60;;;23.50;99.90;;;;;;5079210;28;20416;-80
2023/09/19 07:04:49;;;;;;;5.77;5.17;;;23.60;99.90;;;;;;5077864;28;20271;-80
2023/09/19 07:07:15;;;;;;;6.70;6.00;;;23.60;99.90;;;;;;5078239;28;20187;-82
2023/09/19 07:09:42;;;;;;;8.03;6.03;;;23.70;99.90;;;;;;5079671;28;20447;-83
2023/09/19 07:12:07;;;;;;;8.40;6.20;;;23.70;99.90;;;;;;5076394;28;20431;-83
2023/09/19 07:14:33;;;;;;;10.00;5.97;;;23.80;99.90;;;;;;5078188;28;20568;-82
2023/09/19 07:17:03;;;;;;;7.40;5.83;;;23.70;99.90;;;;;;5078867;28;20213;-82
2023/09/19 07:19:30;;;;;;;5.97;5.37;;;23.70;99.90;;;;;;5079807;28;20707;-80
2023/09/19 07:21:55;;;;;;;6.10;5.50;;;23.80;99.90;;;;;;5081416;28;20435;-81
2023/09/19 07:24:23;;;;;;;7.90;5.50;;;23.80;99.90;;;;;;5079471;28;20494;-83
2023/09/19 07:26:50;;;;;;;8.40;5.97;;;23.90;99.90;;;;;;5080203;28;20218;-81
2023/09/19 07:29:15;;;;;;;6.53;5.93;;;24.00;99.90;;;;;;5079389;28;20424;-81
2023/09/19 07:31:41;;;;;;;5.60;5.10;;;24.00;99.90;;;;;;5081814;28;20417;-83
2023/09/19 07:34:10;;;;;;;6.47;5.43;;;24.10;99.90;;;;;;5080215;28;20370;-80
2023/09/19 07:36:37;;;;;;;7.20;5.97;;;24.20;99.90;;;;;;5080485;28;20428;-82
2023/09/19 07:39:06;;;;;;;6.53;4.70;;;24.20;99.90;;;;;;5080274;28;20440;-80
2023/09/19 07:41:33;;;;;;;6.93;5.23;;;24.30;99.90;;;;;;5078857;28;20732;-81
2023/09/19 07:43:58;;;;;;;6.43;5.73;;;24.40;99.90;;;;;;5080417;28;20489;-82
2023/09/19 07:46:25;;;;;;;7.77;5.63;;;24.40;99.90;;;;;;5082595;28;20432;-82
2023/09/19 07:48:51;;;;;;;6.00;5.30;;;24.60;99.90;;;;;;5077572;28;20435;-81
2023/09/19 07:51:17;;;;;;;7.33;6.07;;;24.70;99.90;;;;;;5060907;28;20502;-81
2023/09/19 07:53:48;;;;;;;7.43;5.40;;;24.80;99.90;;;;;;5078901;28;21220;-81
2023/09/19 07:56:13;;;;;;;6.20;5.60;;;24.90;99.90;;;;;;5076928;28;20606;-80
2023/09/19 07:58:43;;;;;;;5.77;4.97;;;25.00;99.90;;;;;;5076492;28;20440;-82
2023/09/19 08:01:10;;;;;;;7.17;5.27;;;25.00;99.90;;;;;;5076599;28;20201;-83
2023/09/19 08:03:40;;;;;;;8.13;5.37;;;25.10;99.90;;;;;;5075884;28;20587;-81
2023/09/19 08:06:07;;;;;;;7.30;5.07;;;25.20;99.90;;;;;;5075904;28;20553;-80
2023/09/19 08:08:36;;;;;;;7.60;5.80;;;25.20;99.90;;;;;;5083648;28;20426;-82
2023/09/19 08:11:11;;;;;;;5.77;5.17;;;25.30;99.90;;;;;;5074353;28;20428;-82
2023/09/19 08:13:43;;;;;;;8.63;5.03;;;25.30;99.90;;;;;;5071924;28;20478;-83
2023/09/19 08:16:09;;;;;;;6.30;5.10;;;25.30;99.90;;;;;;5077861;28;20451;-82
2023/09/19 08:18:35;;;;;;;9.73;5.20;;;25.30;99.90;;;;;;5078038;28;20444;-82
2023/09/19 08:21:01;;;;;;;8.93;7.00;;;25.40;99.90;;;;;;5076479;28;20941;-82
2023/09/19 08:23:28;;;;;;;7.10;5.70;;;25.40;99.90;;;;;;5077457;28;20650;-81
2023/09/19 08:25:58;;;;;;;6.47;5.23;;;25.40;99.90;;;;;;5075401;28;20444;-82
2023/09/19 08:28:24;;;;;;;6.80;5.83;;;25.40;99.90;;;;;;5077340;28;20437;-80
2023/09/19 08:30:51;;;;;;;6.60;5.80;;;25.50;99.90;;;;;;5088342;28;20444;-82
2023/09/19 08:33:17;;;;;;;6.50;5.40;;;25.40;99.90;;;;;;5075248;28;20417;-81
2023/09/19 08:35:43;;;;;;;6.30;5.70;;;25.30;99.90;;;;;;5067206;28;20443;-82
2023/09/19 08:38:10;;;;;;;8.90;6.13;;;25.30;99.90;;;;;;5068203;28;20419;-80
2023/09/19 08:40:41;;;;;;;9.53;6.73;;;25.20;99.90;;;;;;5074703;28;20548;-80
2023/09/19 08:43:07;;;;;;;8.30;6.57;;;25.20;99.90;;;;;;5079360;28;20474;-83
2023/09/19 08:45:33;;;;;;;13.50;6.37;;;25.20;99.90;;;;;;5079894;28;20981;-80
2023/09/19 08:48:23;;;;;;;7.80;7.00;;;25.10;99.90;;;;;;5078934;28;20631;-81
2023/09/19 08:50:58;;;;;;;8.17;7.20;;;25.10;99.90;;;;;;5081065;28;20529;-81
2023/09/19 08:53:46;;;;;;;8.30;6.80;;;25.00;99.90;;;;;;5081865;28;20477;-83
2023/09/19 08:56:13;;;;;;;7.60;6.80;;;25.00;99.90;;;;;;5076126;28;20475;-81
2023/09/19 08:59:07;;;;;;;12.53;8.40;;;25.00;99.90;;;;;;5079680;28;20527;-80
2023/09/19 09:01:33;;;;;;;6.97;6.27;;;24.90;99.90;;;;;;5062181;28;20444;-81
2023/09/19 09:04:01;;;;;;;7.23;6.07;;;24.90;99.90;;;;;;5080071;28;20472;-83
2023/09/19 09:06:28;;;;;;;5.90;5.30;;;25.00;99.90;;;;;;5079460;28;20460;-83
2023/09/19 09:08:57;;;;;;;5.23;4.73;;;25.00;99.90;;;;;;5078689;28;20467;-83
2023/09/19 09:11:24;;;;;;;5.80;4.83;;;25.00;99.90;;;;;;5081265;28;20463;-82
2023/09/19 09:13:50;;;;;;;4.10;3.30;;;24.90;99.90;;;;;;5081466;28;20425;-83
2023/09/19 09:16:18;;;;;;;3.30;2.90;;;24.90;99.90;;;;;;5083862;28;20934;-81
2023/09/19 09:18:52;;;;;;;3.77;2.53;;;24.80;99.90;;;;;;5081134;28;20536;-82
2023/09/19 09:21:18;;;;;;;2.63;2.43;;;24.70;99.90;;;;;;5074102;28;20709;-81
2023/09/19 09:23:44;;;;;;;3.50;2.00;;;24.70;99.90;;;;;;5083468;28;20512;-81
2023/09/19 09:26:10;;;;;;;1.27;1.17;;;24.70;99.90;;;;;;5082488;28;20460;-82
2023/09/19 09:28:44;;;;;;;2.43;1.43;;;24.70;99.90;;;;;;5084038;28;20183;-83
2023/09/19 09:31:23;;;;;;;2.60;1.50;;;24.70;99.90;;;;;;5079578;28;20286;-83
2023/09/19 09:33:57;;;;;;;3.03;1.30;;;24.60;99.90;;;;;;5079328;28;20436;-81
2023/09/19 09:36:53;;;;;;;1.80;1.20;;;24.40;99.90;;;;;;5095223;28;20441;-83
2023/09/19 09:39:31;;;;;;;1.53;0.83;;;24.40;99.90;;;;;;5077219;28;20444;-81
2023/09/19 09:41:59;;;;;;;0.80;0.80;;;24.40;99.90;;;;;;5080278;28;20920;-83
2023/09/19 09:44:24;;;;;;;0.90;0.80;;;24.30;99.90;;;;;;5079426;28;20833;-83
2023/09/19 09:52:07;;;;;;;0.60;0.60;;;24.20;99.90;;;;;;5075565;28;20451;-82
2023/09/19 09:54:36;;;;;;;0.50;0.50;;;24.20;99.90;;;;;;5077449;28;20483;-84
2023/09/19 09:57:20;;;;;;;0.60;0.47;;;24.20;99.90;;;;;;5079555;28;20788;-81
2023/09/19 09:59:50;;;;;;;0.83;0.70;;;24.20;99.90;;;;;;5080160;28;20618;-83
2023/09/19 10:02:36;;;;;;;1.73;0.60;;;24.20;99.90;;;;;;5079993;28;20459;-83
2023/09/19 10:08:08;;;;;;;1.07;0.77;;;24.20;99.90;;;;;;5080201;28;20432;-81
2023/09/19 10:10:53;;;;;;;2.00;0.70;;;24.30;99.90;;;;;;5077018;28;20452;-82
2023/09/19 10:13:25;;;;;;;0.83;0.63;;;24.40;99.90;;;;;;5079704;28;21272;-81
2023/09/19 10:15:55;;;;;;;0.67;0.57;;;24.50;99.90;;;;;;5079302;28;20441;-84
2023/09/19 10:18:21;;;;;;;0.50;0.50;;;24.60;99.90;;;;;;5081448;28;20440;-83
2023/09/19 10:20:48;;;;;;;1.47;0.97;;;24.70;99.90;;;;;;5074576;28;20630;-81
2023/09/19 10:23:22;;;;;;;0.57;0.57;;;24.70;99.90;;;;;;5074812;28;20477;-83
2023/09/19 10:25:49;;;;;;;0.80;0.70;;;24.90;99.90;;;;;;5060780;28;20484;-82
2023/09/19 10:28:16;;;;;;;0.77;0.70;;;24.90;99.90;;;;;;5079099;28;20455;-83
2023/09/19 10:30:47;;;;;;;1.20;0.83;;;25.00;99.90;;;;;;5076879;28;20444;-82
2023/09/19 10:33:15;;;;;;;0.70;0.53;;;25.00;99.90;;;;;;5072954;28;20999;-84
2023/09/19 10:35:44;;;;;;;1.80;0.80;;;25.00;99.90;;;;;;5076730;28;20471;-82
2023/09/19 10:38:11;;;;;;;1.80;0.70;;;25.10;99.90;;;;;;5082087;28;20472;-83
2023/09/19 10:40:42;;;;;;;1.60;1.07;;;25.10;99.90;;;;;;5079019;28;20476;-81
2023/09/19 10:43:12;;;;;;;1.27;1.10;;;25.20;99.90;;;;;;5082421;28;20992;-82
2023/09/19 10:45:41;;;;;;;1.03;0.63;;;25.20;99.90;;;;;;5080226;28;20452;-83
2023/09/19 10:48:07;;;;;;;2.37;1.17;;;25.20;99.90;;;;;;5072536;28;20413;-82
2023/09/19 10:50:41;;;;;;;0.87;0.70;;;25.30;99.90;;;;;;5083685;28;20445;-83
2023/09/19 10:53:10;;;;;;;1.57;1.03;;;25.30;99.90;;;;;;5075058;28;20693;-84
2023/09/19 10:55:36;;;;;;;1.50;1.20;;;25.30;99.90;;;;;;5071546;28;20456;-81
2023/09/19 10:58:14;;;;;;;1.97;0.97;;;25.30;99.90;;;;;;5070181;28;20460;-84
2023/09/19 11:01:05;;;;;;;0.80;0.80;;;25.30;99.90;;;;;;5063959;28;20445;-82
2023/09/19 11:03:31;;;;;;;1.00;0.90;;;25.40;99.90;;;;;;5063781;28;20480;-83
2023/09/19 11:06:30;;;;;;;0.90;0.90;;;25.40;99.90;;;;;;5067468;28;20998;-80
2023/09/19 11:08:57;;;;;;;1.27;0.80;;;25.50;99.90;;;;;;5059705;28;20467;-82
2023/09/19 11:11:42;;;;;;;0.77;0.70;;;25.50;99.90;;;;;;5067466;28;20672;-81
2023/09/19 11:14:24;;;;;;;1.90;0.90;;;25.50;99.90;;;;;;5069204;28;20517;-81
2023/09/19 11:17:15;;;;;;;0.70;0.60;;;25.50;99.90;;;;;;5064490;28;20776;-81
2023/09/19 11:20:15;;;;;;;1.80;1.00;;;25.60;99.90;;;;;;5064859;28;20720;-81
2023/09/19 11:22:56;;;;;;;0.87;0.67;;;25.60;99.90;;;;;;5069763;28;20796;-81
2023/09/19 11:25:37;;;;;;;1.13;0.80;;;25.60;99.90;;;;;;5073303;28;20560;-81
2023/09/19 11:28:13;;;;;;;2.70;1.00;;;25.70;99.90;;;;;;5072365;28;20460;-80
2023/09/19 11:30:40;;;;;;;1.43;1.10;;;25.70;99.90;;;;;;5073396;28;21005;-83
2023/09/19 11:36:09;;;;;;;0.90;0.73;;;25.80;99.90;;;;;;5072465;28;21024;-81
2023/09/19 11:38:44;;;;;;;1.63;1.30;;;25.80;99.90;;;;;;5079310;28;20425;-81
2023/09/19 11:41:31;;;;;;;1.47;1.00;;;25.80;99.90;;;;;;5077463;28;20551;-82
2023/09/19 11:44:05;;;;;;;0.80;0.70;;;25.80;99.90;;;;;;5079016;28;20468;-83
2023/09/19 11:46:33;;;;;;;1.17;1.00;;;25.80;99.90;;;;;;5072219;28;20456;-81
2023/09/19 11:49:10;;;;;;;0.80;0.80;;;25.90;99.90;;;;;;5079254;28;20444;-81
2023/09/19 11:51:45;;;;;;;1.07;0.97;;;26.00;99.90;;;;;;5076375;28;20447;-80
2023/09/19 11:54:31;;;;;;;0.97;0.87;;;26.00;99.90;;;;;;5061612;28;20518;-83
2023/09/19 11:56:58;;;;;;;1.30;0.87;;;26.00;99.90;;;;;;5078130;28;20424;-83
2023/09/19 11:59:29;;;;;;;0.73;0.70;;;26.10;99.90;;;;;;5077155;28;20703;-81
2023/09/19 12:02:00;;;;;;;1.27;0.93;;;26.20;99.90;;;;;;5081062;28;20933;-84
2023/09/19 12:04:48;;;;;;;0.90;0.80;;;26.20;99.90;;;;;;5080849;28;20469;-81
2023/09/19 12:07:15;;;;;;;1.77;1.03;;;26.30;99.90;;;;;;5078421;28;20420;-83
2023/09/19 12:09:43;;;;;;;1.07;0.90;;;26.30;99.90;;;;;;5075332;28;20782;-83
2023/09/19 12:12:12;;;;;;;1.57;0.80;;;26.30;99.90;;;;;;5076823;28;20860;-83
2023/09/19 12:14:39;;;;;;;1.00;0.83;;;26.40;99.90;;;;;;5077985;28;20468;-82
2023/09/19 12:17:05;;;;;;;2.07;0.80;;;26.40;99.90;;;;;;5079525;28;21246;-83
2023/09/19 12:19:31;;;;;;;0.60;0.60;;;26.50;99.90;;;;;;5080434;28;20683;-84
2023/09/19 12:22:04;;;;;;;1.33;0.97;;;26.60;99.90;;;;;;5076030;28;20468;-80
2023/09/19 12:24:31;;;;;;;0.90;0.80;;;26.60;99.90;;;;;;5079831;28;20484;-83
2023/09/19 12:27:05;;;;;;;1.00;0.60;;;26.60;99.90;;;;;;5071716;28;20432;-83
2023/09/19 12:29:55;;;;;;;1.20;0.90;;;26.70;99.90;;;;;;5070386;28;20542;-83
2023/09/19 12:32:35;;;;;;;1.20;0.80;;;26.70;99.90;;;;;;5078196;28;20431;-81
2023/09/19 12:35:07;;;;;;;0.90;0.70;;;26.80;99.90;;;;;;5079389;28;21200;-81
2023/09/19 12:37:36;;;;;;;0.80;0.73;;;26.80;99.90;;;;;;5079711;28;20961;-81
2023/09/19 12:40:17;;;;;;;1.17;0.90;;;26.90;99.90;;;;;;5080387;28;20460;-81
2023/09/19 12:42:45;;;;;;;0.93;0.70;;;26.90;99.90;;;;;;5073960;28;20819;-81
2023/09/19 12:45:13;;;;;;;1.23;0.83;;;26.90;99.90;;;;;;5076935;28;20476;-81
2023/09/19 12:47:40;;;;;;;0.50;0.50;;;26.90;99.90;;;;;;5078404;28;21110;-83
2023/09/19 12:50:06;;;;;;;1.03;0.93;;;26.90;99.90;;;;;;5075102;28;20457;-81
2023/09/19 12:52:43;;;;;;;1.63;0.80;;;27.00;99.90;;;;;;5063144;28;20438;-81
2023/09/19 12:55:24;;;;;;;0.90;0.60;;;27.00;99.90;;;;;;5073147;28;20456;-81
2023/09/19 12:58:15;;;;;;;0.93;0.70;;;27.00;99.90;;;;;;5079822;28;20496;-81
2023/09/19 13:00:42;;;;;;;1.03;0.90;;;26.90;99.90;;;;;;5075872;28;20449;-81
2023/09/19 13:03:15;;;;;;;1.07;0.80;;;26.90;99.90;;;;;;5074307;28;20425;-82
2023/09/19 13:06:09;;;;;;;2.37;1.20;;;26.90;99.90;;;;;;5079829;28;20456;-81
2023/09/19 13:08:38;;;;;;;0.77;0.50;;;26.90;99.90;;;;;;5069032;28;20618;-83
2023/09/19 13:11:18;;;;;;;0.90;0.70;;;27.00;99.90;;;;;;5093390;28;20977;-80
2023/09/19 13:13:48;;;;;;;1.10;0.80;;;27.00;99.90;;;;;;5077458;28;20586;-82